Time;durP1;ratioP1;P1;durP2;ratioP2;P2;SDS_P1;SDS_P2;PMS_P1;PMS_P2;Temp;Humidity;BMP_temperature;BMP_pressure;BME280_temperature;BME280_humidity;BME280_pressure;Samples;Min_cycle;Max_cycle;Signal;HPM_P1;HPM_P2
2023/07/12 00:01:25;;;;;;;14.40;12.35;;;;;;;-141.84;52.40;22477.13;4915349;29;20297;-65
2023/07/12 00:03:53;;;;;;;13.63;12.32;;;;;;;-141.84;52.18;22489.34;4907141;29;20256;-65
2023/07/12 00:06:36;;;;;;;12.57;11.48;;;;;;;-141.84;51.54;22591.03;4882316;29;20230;-66
2023/07/12 00:09:06;;;;;;;13.35;12.13;;;;;;;-141.84;51.47;22517.81;4888024;29;20206;-64
2023/07/12 00:11:36;;;;;;;14.18;12.07;;;;;;;-141.84;51.53;22550.34;4919344;28;20857;-66
2023/07/12 00:14:05;;;;;;;12.50;11.40;;;;;;;-141.84;51.39;22517.81;4907132;28;20273;-64
2023/07/12 00:16:36;;;;;;;12.68;11.45;;;;;;;-141.84;51.66;22566.63;4880707;29;20723;-65
2023/07/12 00:19:05;;;;;;;14.18;12.77;;;;;;;-141.84;51.71;22554.41;4888998;29;20257;-67
2023/07/12 00:21:34;;;;;;;12.85;11.55;;;;;;;-141.84;51.27;22574.75;4888884;29;20285;-65
2023/07/12 00:24:03;;;;;;;12.32;11.13;;;;;;;-141.84;51.50;22544.25;4887802;29;20302;-65
2023/07/12 00:26:34;;;;;;;13.10;11.90;;;;;;;-141.84;51.27;22554.41;4881629;29;20211;-66
2023/07/12 00:29:06;;;;;;;13.55;11.68;;;;;;;-141.84;51.32;22568.66;4888302;29;20239;-65
2023/07/12 00:31:36;;;;;;;13.50;12.15;;;;;;;-141.84;51.42;22525.94;4888319;29;20330;-65
2023/07/12 00:34:04;;;;;;;12.43;11.20;;;;;;;-141.84;51.45;22550.34;4887996;29;20668;-64
2023/07/12 00:36:34;;;;;;;13.02;11.82;;;;;;;-141.84;51.12;22550.34;4880773;29;20234;-65
2023/07/12 00:39:05;;;;;;;13.20;11.88;;;;;;;-141.84;50.79;22584.94;4888267;29;20207;-65
2023/07/12 00:41:54;;;;;;;13.15;11.85;;;;;;;-141.84;50.12;22680.53;4896714;28;20660;-65
2023/07/12 00:44:29;;;;;;;12.40;11.15;;;;;;;-141.84;50.54;22607.31;4885368;29;20753;-65
2023/07/12 00:46:58;;;;;;;12.70;11.50;;;;;;;-141.84;50.72;22570.69;4888118;29;20242;-65
2023/07/12 00:49:28;;;;;;;12.18;10.73;;;;;;;-141.84;51.03;22546.28;4888040;29;20238;-64
2023/07/12 00:52:04;;;;;;;11.60;10.48;;;;;;;-141.84;51.55;22515.78;4887962;29;20317;-65
2023/07/12 00:54:49;;;;;;;12.63;11.35;;;;;;;-141.84;51.82;22483.25;4880779;29;20297;-65
2023/07/12 00:57:18;;;;;;;11.90;10.80;;;;;;;-141.84;51.38;22550.34;4889648;29;20957;-66
2023/07/12 00:59:49;;;;;;;11.90;10.68;;;;;;;-141.84;51.15;22552.38;4907022;28;20242;-65
2023/07/12 01:02:17;;;;;;;11.82;10.63;;;;;;;-141.84;51.27;22546.28;4906664;28;20276;-65
2023/07/12 01:04:49;;;;;;;12.00;10.85;;;;;;;-141.84;51.41;22491.38;4893819;28;20300;-64
2023/07/12 01:07:19;;;;;;;11.65;10.48;;;;;;;-141.84;51.71;22530.00;4887841;29;20240;-66
2023/07/12 01:09:48;;;;;;;11.80;10.65;;;;;;;-141.84;51.26;22548.31;4896491;28;20767;-65
2023/07/12 01:12:16;;;;;;;11.13;10.02;;;;;;;-141.84;50.64;22586.97;4895493;28;20250;-64
2023/07/12 01:14:47;;;;;;;12.10;10.80;;;;;;;-141.84;50.80;22578.81;4880425;29;20247;-65
2023/07/12 01:17:15;;;;;;;12.23;10.20;;;;;;;-141.84;49.37;22698.81;4887875;29;20269;-65
2023/07/12 01:19:44;;;;;;;10.73;9.73;;;;;;;-141.84;48.90;22739.50;4888026;28;20324;-65
2023/07/12 01:22:13;;;;;;;13.52;10.30;;;;;;;-141.84;49.05;22733.41;4906310;28;20237;-65
2023/07/12 01:24:42;;;;;;;11.15;9.60;;;;;;;-141.84;48.69;22772.03;4898653;28;20237;-65
2023/07/12 01:27:15;;;;;;;13.25;10.35;;;;;;;-141.84;48.47;22755.78;4906546;28;20246;-65
2023/07/12 01:29:44;;;;;;;10.98;9.88;;;;;;;-141.84;48.49;22743.56;4907324;28;20260;-65
2023/07/12 01:32:13;;;;;;;11.05;9.65;;;;;;;-141.84;48.69;22678.47;4904262;28;20324;-63
2023/07/12 01:34:41;;;;;;;11.00;10.00;;;;;;;-141.84;48.55;22702.88;4880053;29;20589;-65
2023/07/12 01:37:10;;;;;;;10.48;8.88;;;;;;;-141.84;48.87;22704.94;4887884;29;20237;-64
2023/07/12 01:39:40;;;;;;;10.43;9.40;;;;;;;-141.84;48.81;22652.03;4887110;29;20266;-64
2023/07/12 01:42:08;;;;;;;10.95;9.80;;;;;;;-141.84;48.99;22601.19;4904284;28;20256;-64
2023/07/12 01:44:37;;;;;;;9.90;9.00;;;;;;;-141.84;48.92;22623.56;4897257;28;20682;-64
2023/07/12 01:47:06;;;;;;;10.02;9.02;;;;;;;-141.84;48.58;22625.59;4886922;29;20236;-66
2023/07/12 01:49:34;;;;;;;10.63;9.50;;;;;;;-141.84;47.57;22694.75;4887663;29;20231;-64
2023/07/12 01:52:03;;;;;;;12.77;9.10;;;;;;;-141.84;46.72;22794.41;4886948;29;20294;-65
2023/07/12 01:54:32;;;;;;;9.73;8.82;;;;;;;-141.84;47.33;22709.00;4879927;29;20262;-65
2023/07/12 01:57:02;;;;;;;9.32;8.43;;;;;;;-141.84;47.11;22721.19;4887365;29;20211;-66
2023/07/12 01:59:30;;;;;;;9.95;7.90;;;;;;;-141.84;46.60;22782.22;4906883;28;20220;-66
2023/07/12 02:01:59;;;;;;;9.48;7.68;;;;;;;-141.84;46.26;22816.78;4909241;28;20265;-65
2023/07/12 02:04:27;;;;;;;9.85;7.28;;;;;;;-141.84;46.05;22926.63;4897989;28;20741;-66
2023/07/12 02:06:56;;;;;;;9.02;6.63;;;;;;;-141.84;46.19;22863.56;4890894;29;20262;-64
2023/07/12 02:09:25;;;;;;;6.55;5.82;;;;;;;-141.84;46.34;22837.13;4895953;28;20226;-65
2023/07/12 02:11:54;;;;;;;7.63;6.28;;;;;;;-141.84;46.47;22826.97;4906805;28;20297;-65
2023/07/12 02:14:23;;;;;;;7.40;5.82;;;;;;;-141.84;46.26;22859.50;4888587;29;20313;-65
2023/07/12 02:16:52;;;;;;;7.25;5.28;;;;;;;-141.84;46.32;22877.81;4890579;29;20231;-65
2023/07/12 02:19:21;;;;;;;6.90;5.38;;;;;;;-141.84;46.71;22879.84;4890941;29;20317;-65
2023/07/12 02:21:49;;;;;;;7.78;5.30;;;;;;;-141.84;46.63;22896.13;4890235;29;20293;-65
2023/07/12 02:24:17;;;;;;;6.97;5.03;;;;;;;-141.84;46.03;22955.09;4890851;29;20326;-64
2023/07/12 02:26:46;;;;;;;5.72;5.00;;;;;;;-141.84;46.33;22904.25;4883746;29;20269;-65
2023/07/12 02:29:14;;;;;;;7.55;4.90;;;;;;;-141.84;46.41;22896.13;4890556;29;20231;-64
2023/07/12 02:31:44;;;;;;;6.80;4.60;;;;;;;-141.84;46.21;22944.94;4890009;29;20254;-64
2023/07/12 02:34:13;;;;;;;6.78;4.45;;;;;;;-141.84;46.49;22887.97;4889001;29;20733;-65
2023/07/12 02:36:41;;;;;;;9.68;4.93;;;;;;;-141.84;46.96;22881.88;4871790;29;20329;-65
2023/07/12 02:39:10;;;;;;;5.35;4.82;;;;;;;-141.84;47.39;22841.19;4890497;29;20301;-65
2023/07/12 02:41:38;;;;;;;5.93;4.45;;;;;;;-141.84;47.47;22822.88;4895761;28;20641;-65
2023/07/12 02:44:07;;;;;;;5.32;4.50;;;;;;;-141.84;47.69;22772.03;4890048;29;20230;-65
2023/07/12 02:46:35;;;;;;;7.97;4.28;;;;;;;-141.84;47.39;22824.94;4882097;29;20309;-65
2023/07/12 02:49:06;;;;;;;7.60;4.05;;;;;;;-141.84;47.72;22763.91;4890519;29;20277;-65
2023/07/12 02:51:37;;;;;;;6.85;4.90;;;;;;;-141.84;47.60;22800.50;4889885;29;20323;-64
2023/07/12 02:54:06;;;;;;;7.25;5.88;;;;;;;-141.84;48.08;22727.28;4890321;29;20258;-64
2023/07/12 02:56:34;;;;;;;10.93;6.03;;;;;;;-141.84;48.12;22729.34;4883150;29;20297;-64
2023/07/12 02:59:03;;;;;;;6.88;6.20;;;;;;;-141.84;48.12;22713.06;4904961;28;20238;-65
2023/07/12 03:01:32;;;;;;;6.40;5.65;;;;;;;-141.84;48.78;22660.19;4908492;28;20233;-65
2023/07/12 03:04:01;;;;;;;7.25;5.57;;;;;;;-141.84;48.68;22680.53;4903685;28;20241;-65
2023/07/12 03:06:30;;;;;;;6.43;4.63;;;;;;;-141.84;48.48;22731.38;4882094;29;20250;-65
2023/07/12 03:08:59;;;;;;;6.70;4.28;;;;;;;-141.84;48.68;22723.22;4891653;28;20289;-66
2023/07/12 03:11:27;;;;;;;5.70;4.13;;;;;;;-141.84;48.86;22684.59;4908238;28;20234;-65
2023/07/12 03:13:56;;;;;;;4.93;4.35;;;;;;;-141.84;49.39;22637.81;4907076;28;20289;-63
2023/07/12 03:16:24;;;;;;;5.00;3.97;;;;;;;-141.84;48.82;22690.69;4881106;29;20239;-64
2023/07/12 03:18:53;;;;;;;5.30;3.90;;;;;;;-141.84;49.03;22686.63;4889721;29;20282;-64
2023/07/12 03:21:22;;;;;;;4.43;3.67;;;;;;;-141.84;49.06;22676.44;4889383;29;20234;-64
2023/07/12 03:23:52;;;;;;;4.97;3.53;;;;;;;-141.84;49.48;22650.00;4889721;29;20535;-64
2023/07/12 03:26:20;;;;;;;4.15;3.25;;;;;;;-141.84;49.93;22589.00;4889481;29;20587;-63
2023/07/12 03:28:49;;;;;;;5.43;2.85;;;;;;;-141.84;49.88;22570.69;4886793;29;20299;-65
2023/07/12 03:31:18;;;;;;;3.95;3.28;;;;;;;-141.84;49.91;22605.25;4889267;29;20341;-64
2023/07/12 03:33:48;;;;;;;4.07;3.15;;;;;;;-141.84;50.31;22576.78;4889558;29;20242;-65
2023/07/12 03:36:17;;;;;;;3.25;2.95;;;;;;;-141.84;50.62;22530.00;4888464;29;20215;-65
2023/07/12 03:38:46;;;;;;;3.95;3.13;;;;;;;-141.84;49.95;22611.38;4881749;29;20242;-64
2023/07/12 03:41:16;;;;;;;4.85;3.17;;;;;;;-141.84;50.29;22593.06;4899057;28;20241;-65
2023/07/12 03:43:47;;;;;;;3.70;3.33;;;;;;;-141.84;50.35;22589.00;4908150;28;20249;-64
2023/07/12 03:46:16;;;;;;;4.97;3.47;;;;;;;-141.84;50.59;22584.94;4908054;28;20293;-66
2023/07/12 03:48:45;;;;;;;4.93;3.40;;;;;;;-141.84;50.48;22664.25;4900428;28;20250;-65
2023/07/12 03:51:16;;;;;;;4.35;3.03;;;;;;;-141.84;51.11;22564.59;4907269;28;20665;-64
2023/07/12 03:53:45;;;;;;;4.30;3.30;;;;;;;-141.84;51.12;22595.09;4908922;28;20264;-65
2023/07/12 03:56:15;;;;;;;7.38;3.58;;;;;;;-141.84;51.61;22582.91;4907584;28;20233;-64
2023/07/12 03:58:44;;;;;;;3.50;3.20;;;;;;;-141.84;51.62;22619.50;4900589;28;20324;-65
2023/07/12 04:01:13;;;;;;;4.53;3.08;;;;;;;-141.84;52.13;22532.06;4895100;29;20294;-65
2023/07/12 04:03:42;;;;;;;4.70;3.60;;;;;;;-141.84;52.21;22570.69;4889022;29;20615;-66
2023/07/12 04:06:12;;;;;;;3.78;2.90;;;;;;;-141.84;52.73;22493.41;4888804;29;20218;-64
2023/07/12 04:08:41;;;;;;;4.65;3.22;;;;;;;-141.84;53.11;22501.53;4881679;29;20207;-65
2023/07/12 04:11:24;;;;;;;4.68;2.90;;;;;;;-141.84;52.44;22538.16;4896432;28;20316;-64
2023/07/12 04:13:53;;;;;;;5.97;2.85;;;;;;;-141.84;52.75;22491.38;4906760;28;20288;-65
2023/07/12 04:16:24;;;;;;;4.38;3.20;;;;;;;-141.84;52.70;22517.81;4887187;29;20750;-67
2023/07/12 04:18:53;;;;;;;6.30;2.83;;;;;;;-141.84;52.68;22513.75;4888692;29;20735;-65
2023/07/12 04:21:22;;;;;;;3.72;2.90;;;;;;;-141.84;52.37;22562.56;4888780;29;20250;-65
2023/07/12 04:23:52;;;;;;;3.65;2.70;;;;;;;-141.84;52.26;22546.28;4888399;29;20798;-66
2023/07/12 04:26:22;;;;;;;5.60;2.95;;;;;;;-141.84;52.13;22578.81;4888369;28;20242;-64
2023/07/12 04:28:52;;;;;;;4.57;3.00;;;;;;;-141.84;52.05;22552.38;4885810;29;20242;-66
2023/07/12 04:31:22;;;;;;;3.15;2.75;;;;;;;-141.84;52.53;22560.53;4888532;29;20651;-65
2023/07/12 04:33:51;;;;;;;3.40;2.45;;;;;;;-141.84;52.96;22444.59;4888597;29;20234;-65
2023/07/12 04:36:20;;;;;;;3.95;2.80;;;;;;;-141.84;52.67;22509.69;4890538;29;20233;-64
2023/07/12 04:38:48;;;;;;;3.47;2.72;;;;;;;-141.84;52.91;22473.06;4902807;28;20210;-64
2023/07/12 04:41:17;;;;;;;3.42;2.83;;;;;;;-141.84;53.32;22471.03;4898971;28;20325;-65
2023/07/12 04:43:47;;;;;;;4.18;2.55;;;;;;;-141.84;52.47;22532.06;4907119;29;20324;-66
2023/07/12 04:46:16;;;;;;;3.72;2.83;;;;;;;-141.84;52.73;22519.84;4907230;29;20242;-64
2023/07/12 04:48:44;;;;;;;3.40;2.70;;;;;;;-141.84;52.35;22525.94;4899127;29;20284;-65
2023/07/12 04:51:12;;;;;;;3.78;2.70;;;;;;;-141.84;52.36;22556.47;4907356;29;20220;-66
2023/07/12 04:53:42;;;;;;;4.15;2.97;;;;;;;-141.84;52.49;22534.09;4907304;29;20278;-66
2023/07/12 04:56:10;;;;;;;2.95;2.53;;;;;;;-141.84;52.12;22582.91;4904634;29;20237;-64
2023/07/12 04:58:39;;;;;;;4.63;2.83;;;;;;;-141.84;51.26;22656.13;4891973;29;20234;-64
2023/07/12 05:01:09;;;;;;;4.45;2.90;;;;;;;-141.84;50.95;22682.56;4900113;29;20425;-64
2023/07/12 05:03:38;;;;;;;4.45;2.85;;;;;;;-141.84;50.61;22713.06;4887861;29;20245;-65
2023/07/12 05:06:07;;;;;;;5.13;2.53;;;;;;;-141.84;49.47;22863.56;4887977;29;20211;-64
2023/07/12 05:08:51;;;;;;;2.40;2.20;;;;;;;-141.84;47.78;23089.34;4887060;29;20618;-64
2023/07/12 05:11:19;;;;;;;2.95;2.40;;;;;;;-141.84;47.18;23186.97;4914937;28;20229;-65
2023/07/12 05:13:48;;;;;;;6.20;2.65;;;;;;;-141.84;47.07;23176.81;4911023;28;20230;-65
2023/07/12 05:16:18;;;;;;;5.50;2.50;;;;;;;-141.84;46.81;23274.44;4869031;29;20330;-65
2023/07/12 05:18:47;;;;;;;4.60;2.60;;;;;;;-141.84;46.91;23270.38;4862636;29;20250;-64
2023/07/12 05:21:15;;;;;;;3.75;2.80;;;;;;;-141.84;45.16;23492.09;4868648;29;20211;-64
2023/07/12 05:23:44;;;;;;;3.70;2.30;;;;;;;-141.84;43.76;23730.13;4880389;29;20690;-64
2023/07/12 05:26:13;;;;;;;3.00;2.70;;;;;;;-141.84;43.74;23758.59;4887470;29;20294;-65
2023/07/12 05:28:41;;;;;;;4.88;2.40;;;;;;;-141.84;43.40;23833.88;4879112;29;20322;-65
2023/07/12 05:31:13;;;;;;;4.60;2.67;;;;;;;-141.84;43.83;23738.25;4887823;29;20293;-66
2023/07/12 05:33:46;;;;;;;2.85;2.65;;;;;;;-141.84;45.90;23327.34;4887498;29;20742;-66
2023/07/12 05:36:15;;;;;;;6.15;2.80;;;;;;;-141.84;46.84;23211.38;4890473;29;20592;-65
2023/07/12 05:38:43;;;;;;;3.78;2.40;;;;;;;-141.84;47.31;23172.75;4884139;29;22526;-66
2023/07/12 05:41:12;;;;;;;2.78;2.58;;;;;;;-141.84;47.35;23154.44;4901193;28;20240;-67
2023/07/12 05:43:41;;;;;;;2.75;2.53;;;;;;;-141.84;47.62;23111.72;4909816;28;20713;-66
2023/07/12 05:46:10;;;;;;;3.00;2.55;;;;;;;-141.84;48.33;22997.81;4909809;28;20238;-66
2023/07/12 05:48:38;;;;;;;2.67;2.38;;;;;;;-141.84;49.00;22906.28;4901980;28;20229;-65
2023/07/12 05:51:08;;;;;;;4.25;2.90;;;;;;;-141.84;49.96;22845.25;4909708;28;20217;-65
2023/07/12 05:53:38;;;;;;;4.32;2.70;;;;;;;-141.84;50.03;22794.41;4898446;29;20266;-66
2023/07/12 05:56:07;;;;;;;2.85;2.60;;;;;;;-141.84;50.04;22761.88;4891501;29;20274;-66
2023/07/12 05:58:35;;;;;;;3.90;2.70;;;;;;;-141.84;50.67;22745.59;4894545;28;20230;-66
2023/07/12 06:01:05;;;;;;;2.97;2.45;;;;;;;-141.84;51.09;22719.16;4910173;28;20592;-65
2023/07/12 06:03:35;;;;;;;5.32;2.90;;;;;;;-141.84;51.78;22617.47;4909734;28;20261;-65
2023/07/12 06:06:08;;;;;;;4.72;2.83;;;;;;;-141.84;51.86;22643.91;4897485;28;20269;-63
2023/07/12 06:08:36;;;;;;;4.63;2.70;;;;;;;-141.84;51.33;22652.03;4876064;29;20305;-64
2023/07/12 06:11:05;;;;;;;5.30;2.80;;;;;;;-141.84;51.45;22647.97;4909302;28;20277;-64
2023/07/12 06:13:34;;;;;;;3.90;2.40;;;;;;;-141.84;51.52;22696.78;4909295;28;20230;-65
2023/07/12 06:16:03;;;;;;;4.75;2.72;;;;;;;-141.84;52.28;22611.38;4891007;29;20253;-67
2023/07/12 06:18:32;;;;;;;3.72;2.67;;;;;;;-141.84;50.95;22713.06;4882748;29;20238;-65
2023/07/12 06:21:02;;;;;;;3.15;2.85;;;;;;;-141.84;50.79;22721.19;4890086;29;20206;-66
2023/07/12 06:23:32;;;;;;;4.57;2.78;;;;;;;-141.84;51.48;22688.66;4888545;29;20749;-66
2023/07/12 06:26:01;;;;;;;4.32;2.53;;;;;;;-141.84;51.38;22692.72;4902782;28;20231;-65
2023/07/12 06:28:30;;;;;;;4.18;2.58;;;;;;;-141.84;51.45;22678.47;4884120;29;20222;-65
2023/07/12 06:30:58;;;;;;;4.10;2.83;;;;;;;-141.84;51.01;22684.59;4890417;29;20273;-67
2023/07/12 06:33:27;;;;;;;3.15;2.85;;;;;;;-141.84;50.88;22737.47;4900800;28;20722;-66
2023/07/12 06:36:00;;;;;;;3.70;2.83;;;;;;;-141.84;50.78;22759.84;4894254;29;20233;-67
2023/07/12 06:38:28;;;;;;;2.63;2.35;;;;;;;-141.84;51.02;22774.06;4883202;29;20558;-66
2023/07/12 06:40:58;;;;;;;3.10;2.72;;;;;;;-141.84;49.76;22883.91;4894527;28;20310;-65
2023/07/12 06:43:27;;;;;;;5.20;2.47;;;;;;;-141.84;49.43;22936.78;4890254;29;20738;-64
2023/07/12 06:45:56;;;;;;;3.63;2.65;;;;;;;-141.84;49.95;22904.25;4889221;29;20230;-62
2023/07/12 06:48:25;;;;;;;2.83;2.60;;;;;;;-141.84;49.64;22951.03;4882234;29;20290;-61
2023/07/12 06:50:55;;;;;;;3.72;2.30;;;;;;;-141.84;49.63;22918.50;4890142;29;20859;-63
2023/07/12 06:53:26;;;;;;;3.15;2.70;;;;;;;-141.84;49.95;22875.78;4908603;29;20526;-63
2023/07/12 06:55:54;;;;;;;3.30;2.55;;;;;;;-141.84;50.07;22794.41;4893386;29;20294;-63
2023/07/12 06:58:25;;;;;;;3.22;2.70;;;;;;;-141.84;50.29;22847.28;4887629;29;20314;-65
2023/07/12 07:00:53;;;;;;;2.60;2.40;;;;;;;-141.84;49.21;23016.13;4889654;29;20296;-64
2023/07/12 07:03:22;;;;;;;3.80;2.58;;;;;;;-141.84;48.58;23069.00;4889832;29;20262;-65
2023/07/12 07:05:50;;;;;;;3.97;2.63;;;;;;;-141.84;48.22;23109.69;4889708;29;20215;-66
2023/07/12 07:08:20;;;;;;;5.43;2.92;;;;;;;-141.84;48.28;23148.34;4889994;29;20249;-65
2023/07/12 07:10:52;;;;;;;3.85;2.92;;;;;;;-141.84;47.66;23191.06;4902945;28;20650;-66
2023/07/12 07:13:22;;;;;;;4.50;2.70;;;;;;;-141.84;47.52;23205.28;4908595;28;20564;-65
2023/07/12 07:15:53;;;;;;;3.08;2.58;;;;;;;-141.84;46.74;23386.34;4891774;29;20245;-66
2023/07/12 07:18:21;;;;;;;2.90;2.67;;;;;;;-141.84;46.98;23325.31;4889585;29;20266;-63
2023/07/12 07:20:52;;;;;;;7.45;2.50;;;;;;;-141.84;47.50;23286.66;4887933;29;20231;-62
2023/07/12 07:23:21;;;;;;;5.35;2.50;;;;;;;-141.84;47.72;23193.09;4889261;29;20762;-63
2023/07/12 07:25:49;;;;;;;4.88;2.90;;;;;;;-141.84;48.03;23223.59;4889097;29;20298;-63
2023/07/12 07:28:20;;;;;;;3.78;2.85;;;;;;;-141.84;47.39;23252.06;4889230;29;20262;-63
2023/07/12 07:30:56;;;;;;;22.05;5.47;;;;;;;-141.84;47.33;23307.00;4888381;29;20738;-62
2023/07/12 07:33:25;;;;;;;18.92;5.47;;;;;;;-141.84;47.48;23357.84;4889498;28;20305;-63
2023/07/12 07:35:54;;;;;;;9.68;4.43;;;;;;;-141.84;47.84;23329.38;4889129;29;20658;-63
2023/07/12 07:38:26;;;;;;;5.63;4.25;;;;;;;-141.84;48.24;23233.75;4886189;29;20330;-63
2023/07/12 07:40:56;;;;;;;10.57;5.25;;;;;;;-141.84;49.00;23162.56;4895428;28;20230;-65
2023/07/12 07:43:25;;;;;;;10.95;5.25;;;;;;;-141.84;49.17;23233.75;4907406;28;20321;-62
2023/07/12 07:45:54;;;;;;;8.75;5.10;;;;;;;-141.84;49.50;23113.75;4897879;28;20226;-64
2023/07/12 07:48:23;;;;;;;4.93;4.53;;;;;;;-141.84;50.02;23113.75;4886126;29;20363;-62
2023/07/12 07:50:52;;;;;;;5.20;4.70;;;;;;;-141.84;50.13;23115.78;4889033;29;20219;-63
2023/07/12 07:53:20;;;;;;;5.60;5.00;;;;;;;-141.84;50.07;23174.78;4888886;29;20318;-64
2023/07/12 07:55:49;;;;;;;7.03;4.40;;;;;;;-141.84;49.79;23184.94;4887862;29;20653;-63
2023/07/12 07:58:18;;;;;;;5.55;4.80;;;;;;;-141.84;48.68;23353.78;4887896;29;20262;-63
2023/07/12 08:00:47;;;;;;;10.35;5.95;;;;;;;-141.84;48.48;23418.88;4882667;29;20757;-62
2023/07/12 08:03:17;;;;;;;7.57;5.35;;;;;;;-141.84;49.20;23272.41;4888659;29;20210;-63
2023/07/12 08:05:46;;;;;;;8.60;5.60;;;;;;;-141.84;49.99;23170.72;4888780;29;20238;-63
2023/07/12 08:08:15;;;;;;;5.40;4.93;;;;;;;-141.84;49.51;23056.81;4888753;29;20266;-64
2023/07/12 08:10:44;;;;;;;4.90;4.50;;;;;;;-141.84;49.84;22861.53;4896642;28;20344;-65
2023/07/12 08:13:13;;;;;;;7.35;4.93;;;;;;;-141.84;50.34;22833.06;4890081;29;20234;-65
2023/07/12 08:15:43;;;;;;;5.40;4.13;;;;;;;-141.84;51.07;22696.78;4887856;29;20789;-67
2023/07/12 08:18:12;;;;;;;6.40;4.35;;;;;;;-141.84;51.58;22654.06;4888702;29;20214;-63
2023/07/12 08:20:42;;;;;;;5.88;4.30;;;;;;;-141.84;51.75;22615.44;4880604;29;20221;-65
2023/07/12 08:23:11;;;;;;;4.22;3.83;;;;;;;-141.84;51.30;22597.13;4888462;29;20630;-64
2023/07/12 08:25:39;;;;;;;4.18;3.75;;;;;;;-141.84;51.43;22589.00;4887203;29;20235;-64
2023/07/12 08:28:08;;;;;;;6.78;4.00;;;;;;;-141.84;50.51;22680.53;4888518;29;20361;-64
2023/07/12 08:30:37;;;;;;;3.38;3.00;;;;;;;-141.84;50.63;22627.63;4879975;29;20238;-64
2023/07/12 08:33:05;;;;;;;4.30;3.50;;;;;;;-141.84;50.86;22658.16;4889048;29;20799;-65
2023/07/12 08:35:34;;;;;;;4.18;3.47;;;;;;;-141.84;50.95;22637.81;4888258;29;20222;-65
2023/07/12 08:38:16;;;;;;;5.03;3.30;;;;;;;-141.84;50.99;22613.41;4888028;29;20290;-63
2023/07/12 08:40:47;;;;;;;4.15;3.53;;;;;;;-141.84;51.02;22700.84;4886585;28;20238;-66
2023/07/12 08:43:20;;;;;;;3.90;3.50;;;;;;;-141.84;51.28;22660.19;4887651;29;20234;-66
2023/07/12 08:45:51;;;;;;;5.18;3.75;;;;;;;-141.84;50.72;22711.03;4887769;29;20318;-64
2023/07/12 08:48:23;;;;;;;3.88;3.58;;;;;;;-141.84;50.56;22739.50;4888049;29;20243;-65
2023/07/12 08:50:51;;;;;;;4.22;3.35;;;;;;;-141.84;50.14;22892.03;4888203;29;20242;-65
2023/07/12 08:53:24;;;;;;;3.85;3.20;;;;;;;-141.84;49.26;22981.53;4887817;29;20723;-65
2023/07/12 08:55:55;;;;;;;4.00;3.38;;;;;;;-141.84;49.05;22965.28;4869516;29;20283;-64
2023/07/12 08:58:26;;;;;;;3.40;3.10;;;;;;;-141.84;49.30;22989.69;4865587;29;20675;-64
2023/07/12 09:01:02;;;;;;;4.40;3.15;;;;;;;-141.84;48.85;22989.69;4869335;29;20822;-66
2023/07/12 09:03:30;;;;;;;4.10;3.30;;;;;;;-141.84;48.95;23058.84;4869223;29;20309;-67
2023/07/12 09:05:59;;;;;;;5.43;3.17;;;;;;;-141.84;48.82;23075.09;4868789;29;20244;-67
2023/07/12 09:08:34;;;;;;;4.03;2.78;;;;;;;-141.84;48.36;23058.84;4871205;29;20456;-66
2023/07/12 09:11:02;;;;;;;3.17;2.92;;;;;;;-141.84;47.73;23221.56;4905188;28;20255;-66
2023/07/12 09:13:36;;;;;;;3.75;3.05;;;;;;;-141.84;47.58;23237.84;4906678;28;20732;-65
2023/07/12 09:16:19;;;;;;;3.20;2.90;;;;;;;-141.84;46.94;23302.94;4887932;29;20245;-65
2023/07/12 09:18:52;;;;;;;4.00;3.10;;;;;;;-141.84;47.25;23197.16;4882696;29;20322;-64
2023/07/12 09:21:23;;;;;;;3.50;3.17;;;;;;;-141.84;47.97;23128.00;4887935;29;20337;-64
2023/07/12 09:23:55;;;;;;;3.92;2.85;;;;;;;-141.84;47.76;23160.53;4888186;29;20214;-64
2023/07/12 09:26:26;;;;;;;3.45;2.78;;;;;;;-141.84;47.25;23274.44;4903348;28;20292;-63
2023/07/12 09:28:58;;;;;;;3.20;2.90;;;;;;;-141.84;47.40;23225.63;4905811;28;20515;-65
2023/07/12 09:31:30;;;;;;;3.03;2.70;;;;;;;-141.84;47.57;23182.91;4906305;28;20269;-65
2023/07/12 09:34:05;;;;;;;3.65;2.80;;;;;;;-141.84;47.36;23166.63;4905729;29;20317;-65
2023/07/12 09:36:36;;;;;;;3.92;2.78;;;;;;;-141.84;47.21;23203.25;4880092;29;20298;-65
2023/07/12 09:39:07;;;;;;;3.10;2.80;;;;;;;-141.84;47.46;23174.78;4902200;29;20673;-65
2023/07/12 09:41:35;;;;;;;4.85;3.00;;;;;;;-141.84;47.85;23150.38;4906635;29;20643;-65
2023/07/12 09:44:04;;;;;;;3.97;3.00;;;;;;;-141.84;47.95;23152.41;4905794;29;20277;-66
2023/07/12 09:46:37;;;;;;;5.57;3.22;;;;;;;-141.84;48.42;23132.06;4897283;29;20242;-67
2023/07/12 09:49:12;;;;;;;4.53;3.40;;;;;;;-141.84;48.56;23099.50;4905845;29;20316;-66
2023/07/12 09:51:53;;;;;;;4.30;3.90;;;;;;;-141.84;49.08;23148.34;4873960;29;20241;-66
2023/07/12 09:54:34;;;;;;;5.68;3.92;;;;;;;-141.84;49.82;23077.13;4866819;29;20262;-68
2023/07/12 09:57:09;;;;;;;4.45;3.53;;;;;;;-141.84;49.19;23203.25;4868617;29;20211;-67
2023/07/12 09:59:49;;;;;;;3.63;3.10;;;;;;;-141.84;48.15;23374.13;4869178;29;20672;-66
2023/07/12 10:02:31;;;;;;;5.05;3.13;;;;;;;-141.84;47.85;23392.44;4868278;29;20321;-65
2023/07/12 10:05:04;;;;;;;4.32;3.28;;;;;;;-141.84;47.41;23431.09;4879704;29;20302;-66
2023/07/12 10:07:52;;;;;;;3.83;3.17;;;;;;;-141.84;47.24;23473.81;4887218;29;20242;-66
2023/07/12 10:10:29;;;;;;;5.05;3.80;;;;;;;-141.84;47.37;23457.53;4877032;29;20358;-65
2023/07/12 10:13:09;;;;;;;4.85;3.38;;;;;;;-141.84;47.76;23404.63;4887537;29;20317;-65
2023/07/12 10:15:40;;;;;;;4.88;3.75;;;;;;;-141.84;46.78;23467.69;4886107;28;20258;-64
2023/07/12 10:18:17;;;;;;;3.80;3.50;;;;;;;-141.84;46.88;23490.06;4886859;29;20214;-62
2023/07/12 10:20:47;;;;;;;4.03;3.40;;;;;;;-141.84;46.06;23567.38;4879822;29;20207;-60
2023/07/12 10:23:19;;;;;;;5.68;3.38;;;;;;;-141.84;46.42;23587.72;4889612;29;20239;-63
2023/07/12 10:25:53;;;;;;;4.07;3.33;;;;;;;-141.84;45.88;23608.06;4889902;29;20644;-63
2023/07/12 10:28:26;;;;;;;5.43;2.90;;;;;;;-141.84;45.33;23599.94;4889872;29;20249;-66
2023/07/12 10:30:59;;;;;;;3.65;3.10;;;;;;;-141.84;45.76;23591.78;4890287;28;20243;-64
2023/07/12 10:33:33;;;;;;;3.92;3.00;;;;;;;-141.84;45.23;23612.13;4889288;29;20261;-65
2023/07/12 10:36:08;;;;;;;5.97;3.33;;;;;;;-141.84;45.94;23498.22;4890356;29;20206;-64
2023/07/12 10:38:36;;;;;;;3.75;3.13;;;;;;;-141.84;45.79;23400.56;4882839;29;20678;-65
2023/07/12 10:41:12;;;;;;;4.60;3.40;;;;;;;-141.84;46.24;23363.94;4887383;29;20222;-66
2023/07/12 10:43:45;;;;;;;3.83;3.35;;;;;;;-141.84;46.44;23366.00;4888542;28;20242;-65
2023/07/12 10:46:21;;;;;;;3.30;3.00;;;;;;;-141.84;46.94;23343.63;4888953;29;20287;-65
2023/07/12 10:48:52;;;;;;;4.65;3.60;;;;;;;-141.84;47.07;23262.25;4885719;29;20668;-65
2023/07/12 10:51:35;;;;;;;3.40;3.03;;;;;;;-141.84;47.96;23209.34;4888239;29;20328;-66
2023/07/12 10:54:05;;;;;;;4.00;3.15;;;;;;;-141.84;47.33;23266.31;4889761;29;20659;-67
2023/07/12 10:56:51;;;;;;;3.30;2.95;;;;;;;-141.84;46.41;23433.13;4881969;29;20266;-65
2023/07/12 10:59:45;;;;;;;3.30;3.00;;;;;;;-141.84;46.06;23492.09;4889909;29;20235;-65
2023/07/12 11:02:22;;;;;;;4.55;3.05;;;;;;;-141.84;44.86;23658.94;4890115;29;20272;-65
2023/07/12 11:04:51;;;;;;;5.30;3.15;;;;;;;-141.84;45.59;23608.06;4888192;29;20242;-65
2023/07/12 11:07:34;;;;;;;4.72;3.10;;;;;;;-141.84;44.31;23791.16;4886606;29;20239;-66
2023/07/12 11:10:17;;;;;;;3.40;2.72;;;;;;;-141.84;42.36;23848.13;4880321;29;20259;-65
2023/07/12 11:12:56;;;;;;;4.97;2.60;;;;;;;-141.84;42.33;23978.34;4864055;29;20243;-63
2023/07/12 11:15:27;;;;;;;4.15;2.40;;;;;;;-141.84;40.67;24076.00;4883421;29;20266;-65
2023/07/12 11:18:03;;;;;;;2.35;2.08;;;;;;;-141.84;38.96;24069.88;4890142;29;20623;-65
2023/07/12 11:20:35;;;;;;;3.35;2.38;;;;;;;-141.84;39.37;24067.84;4881689;29;20226;-64
2023/07/12 11:23:26;;;;;;;4.65;2.13;;;;;;;-141.84;40.11;24010.88;4889444;29;20236;-65
2023/07/12 11:25:58;;;;;;;3.20;2.72;;;;;;;-141.84;40.64;24027.16;4886548;29;20262;-65
2023/07/12 11:28:41;;;;;;;2.25;1.90;;;;;;;-141.84;39.35;24104.47;4863193;29;20239;-65
2023/07/12 11:31:26;;;;;;;2.40;2.00;;;;;;;-141.84;37.50;24122.78;4882640;29;20244;-64